Time;durP1;ratioP1;P1;durP2;ratioP2;P2;SDS_P1;SDS_P2;PMS_P1;PMS_P2;Temp;Humidity;BMP_temperature;BMP_pressure;BME280_temperature;BME280_humidity;BME280_pressure;Samples;Min_cycle;Max_cycle;Signal;HPM_P1;HPM_P2
2022/04/14 00:00:23;;;;;;;75.90;41.85;;;7.40;99.90;;;;;;5011896;28;20068;-70
2022/04/14 00:02:53;;;;;;;69.82;39.70;;;7.30;99.90;;;;;;5011977;28;20113;-72
2022/04/14 00:05:19;;;;;;;62.25;37.58;;;7.30;99.90;;;;;;5011580;28;20042;-71
2022/04/14 00:07:46;;;;;;;63.28;41.15;;;7.30;99.90;;;;;;5010157;28;20033;-71
2022/04/14 00:10:13;;;;;;;71.85;43.42;;;7.30;99.90;;;;;;5011608;28;20053;-71
2022/04/14 00:12:39;;;;;;;81.18;49.97;;;7.20;99.90;;;;;;5011954;28;20364;-72
2022/04/14 00:15:07;;;;;;;82.47;51.80;;;7.10;99.90;;;;;;5012592;28;20457;-73
2022/04/14 00:17:33;;;;;;;76.28;51.22;;;7.00;99.90;;;;;;5012657;28;20114;-71
2022/04/14 00:20:00;;;;;;;75.07;50.10;;;7.00;99.90;;;;;;5013101;28;20027;-67
2022/04/14 00:22:25;;;;;;;82.20;51.45;;;7.00;99.90;;;;;;5006946;28;20550;-72
2022/04/14 00:24:51;;;;;;;89.03;51.55;;;6.90;99.90;;;;;;5012867;28;20037;-72
2022/04/14 00:27:18;;;;;;;83.43;50.50;;;6.80;99.90;;;;;;5013042;28;20026;-71
2022/04/14 00:29:46;;;;;;;79.07;47.97;;;6.80;99.90;;;;;;5011614;28;20042;-69
2022/04/14 00:32:11;;;;;;;80.22;49.45;;;6.80;99.90;;;;;;5012625;28;20018;-71
2022/04/14 00:34:37;;;;;;;80.05;50.38;;;6.80;99.90;;;;;;5011941;28;20384;-72
2022/04/14 00:37:03;;;;;;;78.07;48.15;;;6.70;99.90;;;;;;5012902;28;20025;-71
2022/04/14 00:39:29;;;;;;;72.57;48.35;;;6.70;99.90;;;;;;5012490;28;20499;-71
2022/04/14 00:41:55;;;;;;;77.93;48.83;;;6.60;99.90;;;;;;5012250;28;20037;-70
2022/04/14 00:44:21;;;;;;;79.30;44.40;;;6.60;99.90;;;;;;5012741;28;20040;-70
2022/04/14 00:46:47;;;;;;;70.28;44.10;;;6.50;99.90;;;;;;5012884;28;20033;-71
2022/04/14 00:49:13;;;;;;;71.90;43.20;;;6.40;99.90;;;;;;5012568;28;20434;-68
2022/04/14 00:51:39;;;;;;;63.15;38.78;;;6.30;99.90;;;;;;5012570;28;20045;-70
2022/04/14 00:54:04;;;;;;;49.15;31.95;;;6.30;99.90;;;;;;5012604;28;20022;-71
2022/04/14 00:56:30;;;;;;;51.97;32.00;;;6.30;99.90;;;;;;5012912;28;20018;-70
2022/04/14 00:58:56;;;;;;;50.25;31.20;;;6.30;99.90;;;;;;5012384;28;20144;-71
2022/04/14 01:01:23;;;;;;;57.30;34.42;;;6.30;99.90;;;;;;5012689;28;20025;-71
2022/04/14 01:03:51;;;;;;;58.47;33.42;;;6.30;99.90;;;;;;5012503;28;20029;-71
2022/04/14 01:06:23;;;;;;;46.83;28.02;;;6.20;99.90;;;;;;5012793;28;20104;-71
2022/04/14 01:11:36;;;;;;;46.10;29.25;;;6.20;99.90;;;;;;5012523;28;20465;-71
2022/04/14 01:14:02;;;;;;;46.20;30.58;;;6.20;99.90;;;;;;5012521;28;20018;-69
2022/04/14 01:16:28;;;;;;;45.15;29.60;;;6.10;99.90;;;;;;5012352;28;20473;-69
2022/04/14 01:18:54;;;;;;;45.78;30.95;;;6.10;99.90;;;;;;5012145;28;20040;-71
2022/04/14 01:21:21;;;;;;;54.22;31.88;;;6.10;99.90;;;;;;5012136;28;20548;-71
2022/04/14 01:23:48;;;;;;;46.08;30.80;;;6.10;99.90;;;;;;5011945;28;20373;-70
2022/04/14 01:26:14;;;;;;;49.45;30.05;;;6.10;99.90;;;;;;5012295;28;20148;-70
2022/04/14 01:28:40;;;;;;;44.33;29.17;;;6.10;99.90;;;;;;5011787;28;20478;-71
2022/04/14 01:31:06;;;;;;;43.70;27.58;;;6.10;99.90;;;;;;5012375;28;20122;-71
2022/04/14 01:33:32;;;;;;;33.95;23.85;;;6.00;99.90;;;;;;5011790;28;20026;-70
2022/04/14 01:35:58;;;;;;;36.08;23.17;;;6.00;99.90;;;;;;5012101;28;20030;-69
2022/04/14 01:38:23;;;;;;;34.10;22.45;;;6.00;99.90;;;;;;5012077;28;20460;-67
2022/04/14 01:40:49;;;;;;;41.28;24.40;;;6.00;99.90;;;;;;5012325;28;20121;-71
2022/04/14 01:43:15;;;;;;;44.97;26.08;;;5.90;99.90;;;;;;5012043;28;20033;-70
2022/04/14 01:45:46;;;;;;;38.40;25.13;;;5.90;99.90;;;;;;5011441;28;20473;-71
2022/04/14 01:48:13;;;;;;;41.28;25.55;;;5.80;99.90;;;;;;5011993;28;20029;-71
2022/04/14 01:50:38;;;;;;;43.03;23.48;;;5.80;99.90;;;;;;5012007;28;20129;-71
2022/04/14 01:53:04;;;;;;;35.22;24.02;;;5.80;99.90;;;;;;5011817;28;20536;-71
2022/04/14 01:55:30;;;;;;;38.80;23.92;;;5.80;99.90;;;;;;5012059;28;20112;-70
2022/04/14 01:57:56;;;;;;;40.35;25.38;;;5.70;99.90;;;;;;5011790;28;20030;-71
2022/04/14 02:00:22;;;;;;;39.13;23.88;;;5.70;99.90;;;;;;5011564;28;20030;-69
2022/04/14 02:02:48;;;;;;;42.97;25.33;;;5.70;99.90;;;;;;5012597;28;20030;-70
2022/04/14 02:05:13;;;;;;;35.88;21.98;;;5.70;99.90;;;;;;5027582;28;20034;-70
2022/04/14 02:07:39;;;;;;;36.05;22.30;;;5.70;99.90;;;;;;5011689;28;20477;-70
2022/04/14 02:10:06;;;;;;;35.90;23.88;;;5.70;99.90;;;;;;5011678;28;20026;-71
2022/04/14 02:12:34;;;;;;;41.47;23.55;;;5.70;99.90;;;;;;5011817;28;20049;-67
2022/04/14 02:15:00;;;;;;;41.88;24.13;;;5.70;99.90;;;;;;5011906;28;20026;-70
2022/04/14 02:17:26;;;;;;;41.60;24.08;;;5.70;99.90;;;;;;5011760;28;20025;-69
2022/04/14 02:19:51;;;;;;;37.55;22.95;;;5.70;99.90;;;;;;5011178;28;20025;-71
2022/04/14 02:22:18;;;;;;;36.15;22.83;;;5.70;99.90;;;;;;5011578;28;20026;-71
2022/04/14 02:24:44;;;;;;;34.13;22.83;;;5.70;99.90;;;;;;5011567;28;20030;-71
2022/04/14 02:27:10;;;;;;;40.63;23.00;;;5.70;99.90;;;;;;5011638;28;20029;-71
2022/04/14 02:29:36;;;;;;;38.95;25.67;;;5.70;99.90;;;;;;5011227;28;20093;-68
2022/04/14 02:32:02;;;;;;;46.38;27.25;;;5.70;99.90;;;;;;5011723;28;20504;-71
2022/04/14 02:34:28;;;;;;;47.78;26.80;;;5.70;99.90;;;;;;5011415;28;20026;-68
2022/04/14 02:36:54;;;;;;;40.20;23.80;;;5.80;99.90;;;;;;5010900;28;20105;-72
2022/04/14 02:39:20;;;;;;;33.53;22.70;;;5.70;99.90;;;;;;5011561;28;20030;-71
2022/04/14 02:41:46;;;;;;;38.42;24.05;;;5.70;99.90;;;;;;5011741;28;20445;-69
2022/04/14 02:44:12;;;;;;;41.33;23.42;;;5.70;99.90;;;;;;5011450;28;20025;-71
2022/04/14 02:46:38;;;;;;;39.10;24.88;;;5.60;99.90;;;;;;5011128;28;20030;-70
2022/04/14 02:49:04;;;;;;;36.72;21.98;;;5.60;99.90;;;;;;5011380;28;20652;-69
2022/04/14 02:51:29;;;;;;;36.70;22.02;;;5.60;99.90;;;;;;5011325;28;20057;-70
2022/04/14 02:53:55;;;;;;;33.38;22.15;;;5.40;99.90;;;;;;5011469;28;20109;-70
2022/04/14 02:56:21;;;;;;;35.88;23.35;;;5.40;99.90;;;;;;5010760;28;20053;-71
2022/04/14 02:58:47;;;;;;;36.05;22.63;;;5.30;99.90;;;;;;5014333;28;20029;-69
2022/04/14 03:01:13;;;;;;;41.03;22.27;;;5.30;99.90;;;;;;5014546;28;20040;-70
2022/04/14 03:03:40;;;;;;;34.33;21.42;;;5.20;99.90;;;;;;5014618;28;20030;-70
2022/04/14 03:06:06;;;;;;;38.22;23.33;;;5.10;99.90;;;;;;5014442;28;20038;-70
2022/04/14 03:08:32;;;;;;;36.15;21.73;;;5.10;99.90;;;;;;5014146;28;20033;-71
2022/04/14 03:10:58;;;;;;;32.97;21.48;;;5.00;99.90;;;;;;5014787;28;20026;-70
2022/04/14 03:13:24;;;;;;;37.38;21.30;;;5.00;99.90;;;;;;5014637;28;20354;-71
2022/04/14 03:15:51;;;;;;;35.75;22.20;;;5.00;99.90;;;;;;5014205;28;20021;-71
2022/04/14 03:18:17;;;;;;;33.95;18.92;;;5.00;99.90;;;;;;5014370;28;20484;-71
2022/04/14 03:20:43;;;;;;;32.67;18.70;;;5.00;99.90;;;;;;5013964;28;20112;-68
2022/04/14 03:23:08;;;;;;;33.03;20.20;;;4.90;99.90;;;;;;5014158;28;20109;-71
2022/04/14 03:25:34;;;;;;;36.10;21.45;;;4.90;99.90;;;;;;5013807;28;20030;-70
2022/04/14 03:28:00;;;;;;;40.80;21.60;;;4.90;99.90;;;;;;5014347;28;20018;-69
2022/04/14 03:30:26;;;;;;;32.63;18.20;;;4.90;99.90;;;;;;5013834;28;20617;-69
2022/04/14 03:32:52;;;;;;;30.55;19.38;;;4.90;99.90;;;;;;5014195;28;20026;-71
2022/04/14 03:35:18;;;;;;;31.10;19.15;;;4.80;99.90;;;;;;5013924;28;20029;-70
2022/04/14 03:37:44;;;;;;;34.83;20.85;;;4.70;99.90;;;;;;5014130;28;20022;-70
2022/04/14 03:40:11;;;;;;;32.33;18.17;;;4.70;99.90;;;;;;5013709;28;20167;-68
2022/04/14 03:42:37;;;;;;;31.33;17.77;;;4.70;99.90;;;;;;5009861;28;20083;-70
2022/04/14 03:45:05;;;;;;;32.72;16.80;;;4.50;99.90;;;;;;5013015;28;20033;-69
2022/04/14 03:47:31;;;;;;;33.67;17.52;;;4.60;99.90;;;;;;4993973;28;20023;-71
2022/04/14 03:49:56;;;;;;;27.88;16.65;;;4.40;99.90;;;;;;4994609;28;20051;-72
2022/04/14 03:52:23;;;;;;;25.45;16.80;;;4.40;99.90;;;;;;4993936;28;20034;-71
2022/04/14 03:54:48;;;;;;;44.10;19.33;;;4.40;99.90;;;;;;5011256;28;20038;-71
2022/04/14 03:57:14;;;;;;;30.52;17.33;;;4.30;99.90;;;;;;5013426;28;20517;-73
2022/04/14 03:59:40;;;;;;;32.63;16.13;;;4.30;99.90;;;;;;5013250;28;20026;-72
2022/04/14 04:02:06;;;;;;;36.90;19.63;;;4.30;99.90;;;;;;5013134;28;20088;-71
2022/04/14 04:04:32;;;;;;;33.70;19.42;;;4.30;99.90;;;;;;5012513;28;20392;-71
2022/04/14 04:06:59;;;;;;;35.90;18.20;;;4.30;99.90;;;;;;5008225;28;20476;-71
2022/04/14 04:09:26;;;;;;;31.67;17.58;;;4.50;99.90;;;;;;5003581;28;20033;-72
2022/04/14 04:11:53;;;;;;;30.40;17.27;;;4.70;99.90;;;;;;5012141;28;20032;-73
2022/04/14 04:14:20;;;;;;;32.20;17.80;;;5.00;99.90;;;;;;5012105;28;20032;-68
2022/04/14 04:16:47;;;;;;;27.77;17.55;;;5.40;99.90;;;;;;5011931;28;20069;-71
2022/04/14 04:19:13;;;;;;;31.60;15.18;;;5.80;99.90;;;;;;5013054;28;20495;-66
2022/04/14 04:21:38;;;;;;;32.00;17.13;;;6.20;99.90;;;;;;5012604;28;20022;-72
2022/04/14 04:24:05;;;;;;;33.35;17.33;;;6.80;99.90;;;;;;5013043;28;20076;-72
2022/04/14 04:26:31;;;;;;;29.73;16.90;;;7.10;99.90;;;;;;5012716;28;20038;-70
2022/04/14 04:28:57;;;;;;;32.83;17.00;;;7.50;99.90;;;;;;5012818;28;20034;-70
2022/04/14 04:31:22;;;;;;;33.65;16.63;;;7.80;99.60;;;;;;5012991;28;20091;-72
2022/04/14 04:33:51;;;;;;;27.65;16.70;;;8.30;99.90;;;;;;5012597;28;20037;-72
2022/04/14 04:36:20;;;;;;;27.38;16.05;;;8.80;96.80;;;;;;5012209;28;20447;-72
2022/04/14 04:38:46;;;;;;;30.75;17.13;;;9.30;95.70;;;;;;5012835;28;20030;-72
2022/04/14 04:41:12;;;;;;;28.10;15.02;;;9.50;92.90;;;;;;5012949;28;20041;-73
2022/04/14 04:43:38;;;;;;;29.35;18.23;;;8.80;94.10;;;;;;5012290;28;20068;-71
2022/04/14 04:46:04;;;;;;;30.45;19.48;;;9.10;96.50;;;;;;5012792;28;20037;-72
2022/04/14 04:48:30;;;;;;;30.90;20.63;;;9.80;94.00;;;;;;5012259;28;20056;-72
2022/04/14 04:50:55;;;;;;;35.95;23.25;;;10.60;91.80;;;;;;5012544;28;20056;-71
2022/04/14 04:53:21;;;;;;;46.70;28.88;;;10.70;90.10;;;;;;5012994;28;20030;-72
2022/04/14 04:55:47;;;;;;;34.35;21.65;;;11.20;88.70;;;;;;5012540;28;20032;-71
2022/04/14 04:58:14;;;;;;;35.15;23.02;;;11.70;84.80;;;;;;5012180;28;20022;-73
2022/04/14 05:00:41;;;;;;;41.03;24.05;;;12.10;83.60;;;;;;5011450;28;20013;-73
2022/04/14 05:03:11;;;;;;;39.13;20.02;;;12.80;80.90;;;;;;5012728;28;20494;-73
2022/04/14 05:05:38;;;;;;;53.45;30.88;;;12.90;77.80;;;;;;5012442;28;20033;-72
2022/04/14 05:08:05;;;;;;;42.53;25.70;;;12.80;76.90;;;;;;5027492;28;20029;-71
2022/04/14 05:10:33;;;;;;;32.58;21.23;;;12.40;74.90;;;;;;5012158;28;20029;-70
2022/04/14 05:12:59;;;;;;;33.88;20.67;;;13.00;74.90;;;;;;5012498;28;20022;-72
2022/04/14 05:15:25;;;;;;;40.25;22.02;;;12.30;76.50;;;;;;5011813;28;20084;-73
2022/04/14 05:17:51;;;;;;;38.15;24.45;;;11.80;78.70;;;;;;5012415;28;20030;-71
2022/04/14 05:20:17;;;;;;;45.10;25.65;;;11.50;79.20;;;;;;5011321;28;20117;-72
2022/04/14 05:22:43;;;;;;;43.85;27.85;;;11.20;81.80;;;;;;5011836;28;20479;-70
2022/04/14 05:25:09;;;;;;;53.08;32.85;;;11.00;82.50;;;;;;5011397;28;20099;-73
2022/04/14 05:27:35;;;;;;;52.40;33.20;;;11.10;83.50;;;;;;5012277;28;20101;-72
2022/04/14 05:30:01;;;;;;;49.92;33.70;;;11.00;84.40;;;;;;5012031;28;20114;-69
2022/04/14 05:32:26;;;;;;;36.65;24.30;;;11.10;84.60;;;;;;5012439;28;20026;-72
2022/04/14 05:34:53;;;;;;;39.33;24.08;;;11.00;86.70;;;;;;5011689;28;20022;-72
2022/04/14 05:37:18;;;;;;;41.00;24.77;;;11.20;87.50;;;;;;5012364;28;20075;-73
2022/04/14 05:39:44;;;;;;;47.95;29.70;;;11.00;87.50;;;;;;5011817;28;20026;-70
2022/04/14 05:42:10;;;;;;;61.80;35.95;;;11.10;85.70;;;;;;5011523;28;20222;-72
2022/04/14 05:44:36;;;;;;;51.67;32.85;;;10.90;87.50;;;;;;5011737;28;20445;-71
2022/04/14 05:47:02;;;;;;;41.85;24.40;;;10.90;88.50;;;;;;5011299;28;20282;-72
2022/04/14 05:49:28;;;;;;;41.70;23.88;;;10.90;87.20;;;;;;5011701;28;20476;-72
2022/04/14 05:51:54;;;;;;;40.83;24.27;;;11.10;90.00;;;;;;5011912;28;20057;-72
2022/04/14 05:54:20;;;;;;;37.40;24.83;;;11.30;89.10;;;;;;5011531;28;20022;-73
2022/04/14 05:56:45;;;;;;;46.83;26.05;;;11.30;89.30;;;;;;5011582;28;20472;-72
2022/04/14 05:59:16;;;;;;;40.40;26.40;;;11.40;90.30;;;;;;5011546;28;20030;-69
2022/04/14 06:01:44;;;;;;;42.72;29.13;;;11.60;88.70;;;;;;5010366;28;20030;-73
2022/04/14 06:04:10;;;;;;;42.15;26.70;;;11.70;88.30;;;;;;5010910;28;20018;-72
2022/04/14 06:06:36;;;;;;;44.75;29.95;;;11.70;88.00;;;;;;5010253;28;20522;-66
2022/04/14 06:09:02;;;;;;;41.67;27.75;;;11.70;86.50;;;;;;5011639;28;20026;-71
2022/04/14 06:11:28;;;;;;;38.45;25.95;;;11.80;86.20;;;;;;5011653;28;20053;-72
2022/04/14 06:13:54;;;;;;;37.15;25.08;;;12.00;86.60;;;;;;5011653;28;20064;-72
2022/04/14 06:16:20;;;;;;;39.35;26.90;;;11.90;86.50;;;;;;5011690;28;20472;-73
2022/04/14 06:18:46;;;;;;;46.78;30.27;;;12.00;84.50;;;;;;5011060;28;20033;-68
2022/04/14 06:21:12;;;;;;;46.00;30.90;;;12.10;83.40;;;;;;5011723;28;20046;-71
2022/04/14 06:23:38;;;;;;;46.60;31.30;;;12.00;81.10;;;;;;5011047;28;20113;-72
2022/04/14 06:26:04;;;;;;;44.63;30.13;;;12.30;81.80;;;;;;5010971;28;20084;-71
2022/04/14 06:28:31;;;;;;;43.72;31.90;;;12.50;80.80;;;;;;5007562;28;20022;-71
2022/04/14 06:30:57;;;;;;;42.90;30.77;;;12.60;80.70;;;;;;5009231;28;20033;-72
2022/04/14 06:33:23;;;;;;;45.08;30.42;;;12.80;79.10;;;;;;5014172;28;20105;-72
2022/04/14 06:35:50;;;;;;;44.60;31.17;;;13.00;79.00;;;;;;5014180;28;20072;-72
2022/04/14 06:38:16;;;;;;;49.15;30.98;;;13.00;81.50;;;;;;5014963;28;20061;-72
2022/04/14 06:40:42;;;;;;;48.15;29.50;;;13.20;80.60;;;;;;5014892;28;20030;-73
2022/04/14 06:43:08;;;;;;;43.65;31.52;;;13.40;79.70;;;;;;5015092;28;20032;-73
2022/04/14 06:45:35;;;;;;;36.40;26.48;;;13.50;80.70;;;;;;5014197;28;20030;-72
2022/04/14 06:48:01;;;;;;;37.80;26.83;;;13.70;77.00;;;;;;5015238;28;20105;-72
2022/04/14 06:50:27;;;;;;;41.67;27.55;;;13.90;77.00;;;;;;5015211;28;20054;-72
2022/04/14 06:52:53;;;;;;;35.78;25.90;;;13.90;74.70;;;;;;5014906;28;20026;-73
2022/04/14 06:55:21;;;;;;;40.75;28.35;;;14.20;74.20;;;;;;5014543;28;20107;-73
2022/04/14 06:57:48;;;;;;;40.60;27.02;;;14.30;75.30;;;;;;5014480;28;20037;-66
2022/04/14 07:00:14;;;;;;;41.85;27.15;;;14.50;75.70;;;;;;5014289;28;20105;-74
2022/04/14 07:02:51;;;;;;;36.45;25.35;;;14.70;73.10;;;;;;5014794;28;20419;-73
2022/04/14 07:05:17;;;;;;;38.50;27.20;;;14.80;71.50;;;;;;5014230;28;20045;-72
2022/04/14 07:07:44;;;;;;;35.83;25.73;;;14.60;75.10;;;;;;5013831;28;20028;-71
2022/04/14 07:10:13;;;;;;;34.92;23.95;;;14.90;70.40;;;;;;5013647;28;20033;-73
2022/04/14 07:12:40;;;;;;;37.83;21.73;;;15.10;70.00;;;;;;5013804;28;20022;-73
2022/04/14 07:15:07;;;;;;;34.53;21.95;;;15.30;68.30;;;;;;5014256;28;20045;-72
2022/04/14 07:17:34;;;;;;;30.85;20.13;;;15.60;70.80;;;;;;5014222;28;20026;-71
2022/04/14 07:20:03;;;;;;;33.10;20.67;;;15.60;67.90;;;;;;5014091;28;20475;-73
2022/04/14 07:22:29;;;;;;;37.45;23.08;;;15.70;68.60;;;;;;5013182;28;20018;-71
2022/04/14 07:24:55;;;;;;;35.25;22.30;;;15.90;68.60;;;;;;5013640;28;20040;-72
2022/04/14 07:27:21;;;;;;;37.70;23.95;;;15.70;67.50;;;;;;5014309;28;20026;-72
2022/04/14 07:29:48;;;;;;;39.63;27.17;;;15.90;66.70;;;;;;5013906;28;20030;-73
2022/04/14 07:32:14;;;;;;;46.92;29.35;;;16.10;65.50;;;;;;5013739;28;20480;-73
2022/04/14 07:34:40;;;;;;;36.63;23.67;;;15.70;62.10;;;;;;5014192;28;20058;-67
2022/04/14 07:37:06;;;;;;;33.47;22.30;;;16.10;63.70;;;;;;5013953;28;20026;-73
2022/04/14 07:39:32;;;;;;;32.90;20.42;;;15.90;61.90;;;;;;5012957;28;20044;-70
2022/04/14 07:41:58;;;;;;;34.83;19.73;;;15.80;61.00;;;;;;5013165;28;20503;-69
2022/04/14 07:44:24;;;;;;;33.50;16.55;;;16.40;61.90;;;;;;5012625;28;20057;-71
2022/04/14 07:46:50;;;;;;;31.30;18.55;;;16.40;60.10;;;;;;5013269;28;20488;-72
2022/04/14 07:49:16;;;;;;;24.45;15.35;;;16.80;61.50;;;;;;5013658;28;20100;-71
2022/04/14 07:51:42;;;;;;;21.33;13.30;;;17.00;60.60;;;;;;5012593;28;20061;-73
2022/04/14 07:54:07;;;;;;;19.65;13.13;;;17.10;62.60;;;;;;5013595;28;20030;-73
2022/04/14 07:56:34;;;;;;;21.80;12.63;;;17.10;61.40;;;;;;5013338;28;20731;-73
2022/04/14 07:59:00;;;;;;;21.50;11.50;;;16.80;58.40;;;;;;5013544;28;20030;-73
2022/04/14 08:01:27;;;;;;;21.48;12.07;;;16.70;59.20;;;;;;5013423;28;20082;-73
2022/04/14 08:03:53;;;;;;;18.63;9.23;;;16.60;58.20;;;;;;5013199;28;20029;-72
2022/04/14 08:06:19;;;;;;;17.20;9.13;;;17.00;58.90;;;;;;5011472;28;20037;-72
2022/04/14 08:08:44;;;;;;;16.23;7.72;;;17.40;58.60;;;;;;5012713;28;20026;-72
2022/04/14 08:11:10;;;;;;;14.35;6.38;;;17.40;56.00;;;;;;5013129;28;20037;-72
2022/04/14 08:13:41;;;;;;;12.02;6.78;;;17.60;53.10;;;;;;5013206;28;20030;-72
2022/04/14 08:16:10;;;;;;;10.25;5.93;;;17.20;53.60;;;;;;5013222;28;20036;-66
2022/04/14 08:18:37;;;;;;;9.45;5.13;;;17.80;57.10;;;;;;5000116;28;20033;-72
2022/04/14 08:21:03;;;;;;;11.98;5.15;;;17.50;51.60;;;;;;5013023;28;20029;-72
2022/04/14 08:23:30;;;;;;;11.73;5.97;;;17.80;54.20;;;;;;5013006;28;20026;-72
2022/04/14 08:25:57;;;;;;;15.30;7.18;;;18.00;56.80;;;;;;5012618;28;20041;-69
2022/04/14 08:28:23;;;;;;;11.18;5.60;;;17.90;55.00;;;;;;5013179;28;20029;-66
2022/04/14 08:30:49;;;;;;;13.52;6.13;;;17.90;56.70;;;;;;5012443;28;20036;-66
2022/04/14 08:33:18;;;;;;;9.95;5.70;;;18.00;53.60;;;;;;5012127;28;20365;-73
2022/04/14 08:35:45;;;;;;;9.60;4.43;;;18.10;53.90;;;;;;5013002;28;20030;-73
2022/04/14 08:38:11;;;;;;;7.07;3.67;;;18.10;50.40;;;;;;5012748;28;20080;-67
2022/04/14 08:40:40;;;;;;;6.65;3.55;;;18.20;51.10;;;;;;5012986;28;20025;-66
2022/04/14 08:43:08;;;;;;;4.43;2.60;;;17.80;46.80;;;;;;5012671;28;20077;-68
2022/04/14 08:45:44;;;;;;;5.93;2.72;;;18.20;47.40;;;;;;5012609;28;20038;-67
2022/04/14 08:48:12;;;;;;;4.40;2.88;;;18.00;45.60;;;;;;5012852;28;20464;-72
2022/04/14 08:50:38;;;;;;;3.53;2.53;;;17.80;46.30;;;;;;5012413;28;20137;-68
2022/04/14 08:53:07;;;;;;;7.95;3.22;;;17.90;49.20;;;;;;5012293;28;20080;-67
2022/04/14 08:55:33;;;;;;;5.85;2.90;;;18.20;47.90;;;;;;5011727;28;20026;-73
2022/04/14 08:58:00;;;;;;;6.07;3.10;;;18.40;47.40;;;;;;5012545;28;20109;-73
2022/04/14 09:00:27;;;;;;;7.38;3.42;;;18.60;47.20;;;;;;5012543;28;20484;-72
2022/04/14 09:02:55;;;;;;;7.78;3.65;;;18.80;50.10;;;;;;5012155;28;20080;-73
2022/04/14 09:05:21;;;;;;;9.07;4.40;;;18.50;47.40;;;;;;5012649;28;20102;-71
2022/04/14 09:07:49;;;;;;;9.32;3.70;;;18.40;46.90;;;;;;5011682;28;20488;-72
2022/04/14 09:10:15;;;;;;;7.15;2.95;;;18.10;45.70;;;;;;5012454;28;20018;-72
2022/04/14 09:12:41;;;;;;;4.03;2.50;;;18.40;46.50;;;;;;5011957;28;20029;-73
2022/04/14 09:15:08;;;;;;;3.90;2.63;;;18.30;45.30;;;;;;5011856;28;20022;-73
2022/04/14 09:17:34;;;;;;;7.97;3.00;;;18.50;44.70;;;;;;5011948;28;20034;-70
2022/04/14 09:20:00;;;;;;;5.30;2.92;;;18.40;46.70;;;;;;5010383;28;20056;-73
2022/04/14 09:22:26;;;;;;;6.90;3.28;;;18.40;46.00;;;;;;5010367;28;20041;-71
2022/04/14 09:24:57;;;;;;;6.07;2.97;;;18.30;46.20;;;;;;5010422;28;20037;-73
2022/04/14 09:27:30;;;;;;;7.95;3.25;;;18.30;44.90;;;;;;5011259;28;20069;-72
2022/04/14 09:29:58;;;;;;;5.68;3.47;;;18.60;46.20;;;;;;5011492;28;20044;-71
2022/04/14 09:32:32;;;;;;;5.07;2.97;;;18.60;43.00;;;;;;5008256;28;20033;-72
2022/04/14 09:35:04;;;;;;;5.57;3.00;;;19.10;46.10;;;;;;5008106;28;20033;-74
2022/04/14 09:37:31;;;;;;;5.95;3.30;;;19.20;47.10;;;;;;4991153;28;20041;-71
2022/04/14 09:39:59;;;;;;;10.15;3.70;;;19.30;46.80;;;;;;4990239;28;20030;-72
2022/04/14 09:42:27;;;;;;;7.35;3.85;;;19.60;47.80;;;;;;5010025;28;20485;-72
2022/04/14 09:44:54;;;;;;;4.82;3.05;;;19.50;44.90;;;;;;5010747;28;20484;-72
2022/04/14 09:47:23;;;;;;;7.97;3.67;;;19.40;46.70;;;;;;5010694;28;20029;-66
2022/04/14 09:49:49;;;;;;;8.02;3.75;;;19.60;47.90;;;;;;4998621;28;20042;-72
2022/04/14 09:52:15;;;;;;;5.85;3.25;;;19.40;47.30;;;;;;4997491;28;20547;-72
2022/04/14 09:54:41;;;;;;;4.97;3.40;;;19.20;45.20;;;;;;4996701;28;20026;-73
2022/04/14 09:57:10;;;;;;;8.05;3.47;;;19.30;45.60;;;;;;4993728;28;20046;-68
2022/04/14 09:59:37;;;;;;;6.10;2.85;;;19.30;50.40;;;;;;4990086;28;20026;-71
2022/04/14 10:02:14;;;;;;;5.18;3.30;;;19.40;46.50;;;;;;4990518;28;20113;-72
2022/04/14 10:04:43;;;;;;;8.18;3.67;;;19.60;49.40;;;;;;4991964;28;20080;-72
2022/04/14 10:07:15;;;;;;;7.53;3.92;;;19.80;49.60;;;;;;4999883;28;20041;-72
2022/04/14 10:09:43;;;;;;;8.18;3.47;;;20.10;50.10;;;;;;5000725;28;20033;-72
2022/04/14 10:12:24;;;;;;;7.05;3.88;;;20.10;48.80;;;;;;5015685;28;20092;-73
2022/04/14 10:14:56;;;;;;;6.93;3.95;;;20.20;50.50;;;;;;4996052;28;20491;-65
2022/04/14 10:17:24;;;;;;;5.28;3.33;;;19.50;45.50;;;;;;4995866;28;20042;-66
2022/04/14 10:19:51;;;;;;;6.82;4.07;;;19.50;45.50;;;;;;4995886;28;20026;-73
2022/04/14 10:22:18;;;;;;;7.85;3.83;;;19.60;48.00;;;;;;5010860;28;20049;-72
2022/04/14 10:24:45;;;;;;;8.45;3.83;;;19.40;46.60;;;;;;5013035;28;20542;-65
2022/04/14 10:27:13;;;;;;;6.90;3.55;;;19.40;45.40;;;;;;5007258;28;20032;-73
2022/04/14 10:29:41;;;;;;;11.55;4.35;;;19.20;47.80;;;;;;5013916;28;20368;-71
2022/04/14 10:32:07;;;;;;;8.27;4.30;;;19.30;46.60;;;;;;4994202;28;20026;-72
2022/04/14 10:34:34;;;;;;;7.03;3.83;;;19.40;48.00;;;;;;4996079;28;20019;-73
2022/04/14 10:37:19;;;;;;;3.70;2.70;;;19.40;48.10;;;;;;4993810;28;20030;-73
2022/04/14 10:39:49;;;;;;;7.03;3.47;;;19.60;47.60;;;;;;4994541;28;20026;-66
2022/04/14 10:42:24;;;;;;;5.90;3.47;;;19.40;46.40;;;;;;4993939;28;20026;-72
2022/04/14 10:44:51;;;;;;;7.95;3.42;;;19.50;47.10;;;;;;4994030;28;20038;-73
2022/04/14 10:47:33;;;;;;;7.40;2.75;;;19.50;47.10;;;;;;4998226;28;20034;-73
2022/04/14 10:49:59;;;;;;;8.15;3.42;;;19.80;48.30;;;;;;4993839;28;20043;-73
2022/04/14 10:52:26;;;;;;;6.65;3.10;;;19.50;46.30;;;;;;5014380;28;20030;-73
2022/04/14 10:54:57;;;;;;;5.20;3.10;;;19.50;48.90;;;;;;5013220;28;20563;-70
2022/04/14 10:57:40;;;;;;;7.80;3.90;;;19.40;45.50;;;;;;5017370;28;20029;-72
2022/04/14 11:00:32;;;;;;;5.68;3.53;;;19.60;47.70;;;;;;5014705;28;20026;-72
2022/04/14 11:03:17;;;;;;;4.75;3.22;;;19.40;47.30;;;;;;5016712;28;20048;-71
2022/04/14 11:05:48;;;;;;;8.48;3.08;;;19.10;45.70;;;;;;5014515;28;20049;-71
2022/04/14 11:08:29;;;;;;;6.90;3.58;;;19.30;45.90;;;;;;5014787;28;20022;-72
2022/04/14 11:11:11;;;;;;;5.97;2.90;;;19.60;45.60;;;;;;5014524;28;20030;-72
2022/04/14 11:13:53;;;;;;;8.18;3.28;;;19.60;47.90;;;;;;5014317;28;20030;-71
2022/04/14 11:16:38;;;;;;;10.23;3.60;;;19.50;47.20;;;;;;5014435;28;20030;-72
2022/04/14 11:19:24;;;;;;;6.50;3.00;;;19.50;44.70;;;;;;5013676;28;20030;-72
2022/04/14 11:22:01;;;;;;;7.07;3.20;;;19.40;48.10;;;;;;5014168;28;20033;-72
2022/04/14 11:24:37;;;;;;;8.18;3.35;;;19.50;45.90;;;;;;5029757;28;20080;-72
2022/04/14 11:27:13;;;;;;;6.55;2.88;;;19.70;45.90;;;;;;5014408;28;20476;-67
2022/04/14 11:29:40;;;;;;;4.80;2.80;;;19.70;44.80;;;;;;5014389;28;20467;-72
2022/04/14 11:32:06;;;;;;;7.72;3.30;;;19.90;46.20;;;;;;5013498;28;20025;-72
2022/04/14 11:34:33;;;;;;;5.43;3.08;;;19.70;46.90;;;;;;5013316;28;20125;-72
2022/04/14 11:37:01;;;;;;;8.45;3.55;;;19.70;44.70;;;;;;5013940;28;20025;-71
2022/04/14 11:39:28;;;;;;;4.50;3.22;;;19.70;44.10;;;;;;5014119;28;20069;-70
2022/04/14 11:41:56;;;;;;;7.03;3.60;;;19.80;44.90;;;;;;5014189;28;20101;-70
2022/04/14 11:44:25;;;;;;;6.50;2.83;;;19.90;48.20;;;;;;5013992;28;20036;-72
2022/04/14 11:46:54;;;;;;;6.63;3.33;;;19.90;43.90;;;;;;5014681;28;20089;-70
2022/04/14 11:49:25;;;;;;;6.05;2.88;;;19.90;44.80;;;;;;5014372;28;20444;-70
2022/04/14 11:51:55;;;;;;;6.03;3.10;;;20.00;45.30;;;;;;5013826;28;20061;-72
2022/04/14 11:54:27;;;;;;;9.00;3.50;;;19.90;43.80;;;;;;5013795;28;20104;-72
2022/04/14 11:56:55;;;;;;;6.55;2.88;;;20.00;45.90;;;;;;5013900;28;20022;-72
2022/04/14 11:59:41;;;;;;;4.03;2.72;;;20.00;45.30;;;;;;5013745;28;20056;-71
2022/04/14 12:02:27;;;;;;;6.65;2.85;;;20.20;46.60;;;;;;5013184;28;20061;-71
2022/04/14 12:04:55;;;;;;;4.88;2.55;;;20.20;44.20;;;;;;5013453;28;20034;-73
2022/04/14 12:07:23;;;;;;;4.95;2.70;;;20.30;43.10;;;;;;5013464;28;20030;-73
2022/04/14 12:09:59;;;;;;;6.05;3.13;;;20.30;46.10;;;;;;5013570;28;20036;-72
2022/04/14 12:12:25;;;;;;;6.32;3.08;;;20.30;45.20;;;;;;5013474;28;20538;-73
2022/04/14 12:14:55;;;;;;;5.90;3.03;;;20.30;44.30;;;;;;5013361;28;20022;-72
2022/04/14 12:17:23;;;;;;;5.75;2.65;;;20.20;43.70;;;;;;5013668;28;20537;-74
2022/04/14 12:19:57;;;;;;;7.82;2.95;;;20.00;43.00;;;;;;5013596;28;20026;-72
2022/04/14 12:22:25;;;;;;;5.30;3.03;;;20.00;44.10;;;;;;5010970;28;20029;-73
2022/04/14 12:24:53;;;;;;;3.58;2.50;;;20.00;43.40;;;;;;5012487;28;20022;-73
2022/04/14 12:27:23;;;;;;;5.93;3.00;;;20.00;44.60;;;;;;5012828;28;20014;-71
2022/04/14 12:29:51;;;;;;;4.90;2.72;;;20.00;43.10;;;;;;5010867;28;20392;-72
2022/04/14 12:32:18;;;;;;;6.45;2.72;;;20.10;43.30;;;;;;5011080;28;20024;-72
2022/04/14 12:34:45;;;;;;;5.75;3.03;;;20.10;43.10;;;;;;5012900;28;20117;-73
2022/04/14 12:37:13;;;;;;;5.82;3.00;;;20.10;44.50;;;;;;5012956;28;20018;-71
2022/04/14 12:39:57;;;;;;;6.20;2.80;;;20.10;43.80;;;;;;5012912;28;20427;-74
2022/04/14 12:42:25;;;;;;;4.40;3.10;;;20.00;43.60;;;;;;5012768;28;20480;-72